sensor_id;sensor_type;location;lat;lon;timestamp;P1;durP1;ratioP1;P2;durP2;ratioP2
4583;SDS011;2304;47.606;12.186;2024-02-21T00:04:27;8.80;;;3.90;;
4583;SDS011;2304;47.606;12.186;2024-02-21T00:09:29;9.37;;;5.20;;
4583;SDS011;2304;47.606;12.186;2024-02-21T00:14:32;9.90;;;3.80;;
4583;SDS011;2304;47.606;12.186;2024-02-21T00:19:34;9.73;;;4.23;;
4583;SDS011;2304;47.606;12.186;2024-02-21T00:24:36;9.37;;;4.73;;
4583;SDS011;2304;47.606;12.186;2024-02-21T00:29:39;6.70;;;4.23;;
4583;SDS011;2304;47.606;12.186;2024-02-21T00:34:41;11.53;;;4.20;;
4583;SDS011;2304;47.606;12.186;2024-02-21T00:39:44;12.27;;;4.40;;
4583;SDS011;2304;47.606;12.186;2024-02-21T00:44:47;7.37;;;4.00;;
4583;SDS011;2304;47.606;12.186;2024-02-21T00:49:49;8.50;;;5.37;;
4583;SDS011;2304;47.606;12.186;2024-02-21T00:54:51;8.10;;;3.80;;
4583;SDS011;2304;47.606;12.186;2024-02-21T00:59:54;5.73;;;3.60;;
4583;SDS011;2304;47.606;12.186;2024-02-21T01:04:56;6.27;;;4.00;;
4583;SDS011;2304;47.606;12.186;2024-02-21T01:09:58;8.00;;;3.90;;
4583;SDS011;2304;47.606;12.186;2024-02-21T01:15:01;9.40;;;4.10;;
4583;SDS011;2304;47.606;12.186;2024-02-21T01:20:03;7.23;;;4.00;;
4583;SDS011;2304;47.606;12.186;2024-02-21T01:25:07;5.63;;;3.50;;
4583;SDS011;2304;47.606;12.186;2024-02-21T01:30:11;5.87;;;3.43;;
4583;SDS011;2304;47.606;12.186;2024-02-21T01:35:13;7.10;;;3.50;;
4583;SDS011;2304;47.606;12.186;2024-02-21T01:40:15;6.30;;;3.70;;
4583;SDS011;2304;47.606;12.186;2024-02-21T01:45:18;6.03;;;3.37;;
4583;SDS011;2304;47.606;12.186;2024-02-21T01:50:20;8.10;;;3.47;;
4583;SDS011;2304;47.606;12.186;2024-02-21T01:55:24;12.23;;;5.40;;
4583;SDS011;2304;47.606;12.186;2024-02-21T02:00:28;8.73;;;3.43;;
4583;SDS011;2304;47.606;12.186;2024-02-21T02:05:30;6.57;;;3.80;;
4583;SDS011;2304;47.606;12.186;2024-02-21T02:10:31;5.00;;;2.90;;
4583;SDS011;2304;47.606;12.186;2024-02-21T02:15:41;8.10;;;3.77;;
4583;SDS011;2304;47.606;12.186;2024-02-21T02:20:43;6.27;;;3.17;;
4583;SDS011;2304;47.606;12.186;2024-02-21T02:25:48;7.00;;;3.07;;
4583;SDS011;2304;47.606;12.186;2024-02-21T02:30:52;7.97;;;3.10;;
4583;SDS011;2304;47.606;12.186;2024-02-21T02:35:54;7.50;;;3.30;;
4583;SDS011;2304;47.606;12.186;2024-02-21T02:40:57;6.67;;;3.60;;
4583;SDS011;2304;47.606;12.186;2024-02-21T02:45:59;5.40;;;3.07;;
4583;SDS011;2304;47.606;12.186;2024-02-21T02:51:01;5.50;;;2.90;;
4583;SDS011;2304;47.606;12.186;2024-02-21T02:56:05;7.70;;;3.30;;
4583;SDS011;2304;47.606;12.186;2024-02-21T03:01:07;7.77;;;3.10;;
4583;SDS011;2304;47.606;12.186;2024-02-21T03:06:09;5.17;;;2.87;;
4583;SDS011;2304;47.606;12.186;2024-02-21T03:11:12;7.53;;;3.80;;
4583;SDS011;2304;47.606;12.186;2024-02-21T03:16:16;7.57;;;3.53;;
4583;SDS011;2304;47.606;12.186;2024-02-21T03:21:18;7.13;;;3.57;;
4583;SDS011;2304;47.606;12.186;2024-02-21T03:26:21;10.77;;;3.40;;
4583;SDS011;2304;47.606;12.186;2024-02-21T03:31:23;7.30;;;3.57;;
4583;SDS011;2304;47.606;12.186;2024-02-21T03:36:25;5.10;;;3.27;;
4583;SDS011;2304;47.606;12.186;2024-02-21T03:41:28;10.43;;;4.10;;
4583;SDS011;2304;47.606;12.186;2024-02-21T03:46:30;7.73;;;3.83;;
4583;SDS011;2304;47.606;12.186;2024-02-21T03:51:33;5.03;;;3.63;;
4583;SDS011;2304;47.606;12.186;2024-02-21T03:56:38;5.60;;;2.90;;
4583;SDS011;2304;47.606;12.186;2024-02-21T04:01:40;7.53;;;4.07;;
4583;SDS011;2304;47.606;12.186;2024-02-21T04:06:45;7.70;;;3.67;;
4583;SDS011;2304;47.606;12.186;2024-02-21T04:11:49;9.03;;;4.03;;
4583;SDS011;2304;47.606;12.186;2024-02-21T04:16:51;7.20;;;4.00;;
4583;SDS011;2304;47.606;12.186;2024-02-21T04:21:53;5.70;;;3.60;;
4583;SDS011;2304;47.606;12.186;2024-02-21T04:26:56;6.50;;;3.53;;
4583;SDS011;2304;47.606;12.186;2024-02-21T04:31:58;6.77;;;4.43;;
4583;SDS011;2304;47.606;12.186;2024-02-21T04:37:00;11.30;;;5.20;;
4583;SDS011;2304;47.606;12.186;2024-02-21T04:42:03;8.83;;;4.90;;
4583;SDS011;2304;47.606;12.186;2024-02-21T04:47:05;8.33;;;5.10;;
4583;SDS011;2304;47.606;12.186;2024-02-21T04:52:09;8.60;;;4.57;;
4583;SDS011;2304;47.606;12.186;2024-02-21T04:57:12;6.97;;;4.87;;
4583;SDS011;2304;47.606;12.186;2024-02-21T05:02:17;7.10;;;5.97;;
4583;SDS011;2304;47.606;12.186;2024-02-21T05:07:20;11.17;;;5.17;;
4583;SDS011;2304;47.606;12.186;2024-02-21T05:12:23;8.27;;;6.30;;
4583;SDS011;2304;47.606;12.186;2024-02-21T05:17:25;13.80;;;7.50;;
4583;SDS011;2304;47.606;12.186;2024-02-21T05:22:26;8.17;;;5.70;;
4583;SDS011;2304;47.606;12.186;2024-02-21T05:27:30;8.53;;;5.97;;
4583;SDS011;2304;47.606;12.186;2024-02-21T05:32:31;9.80;;;7.07;;
4583;SDS011;2304;47.606;12.186;2024-02-21T05:37:33;10.03;;;6.47;;
4583;SDS011;2304;47.606;12.186;2024-02-21T05:42:36;9.53;;;5.77;;
4583;SDS011;2304;47.606;12.186;2024-02-21T05:47:38;7.90;;;6.00;;
4583;SDS011;2304;47.606;12.186;2024-02-21T05:52:40;12.80;;;6.47;;
4583;SDS011;2304;47.606;12.186;2024-02-21T05:57:43;11.10;;;6.30;;
4583;SDS011;2304;47.606;12.186;2024-02-21T06:02:45;7.27;;;4.13;;
4583;SDS011;2304;47.606;12.186;2024-02-21T06:07:47;8.33;;;5.40;;
4583;SDS011;2304;47.606;12.186;2024-02-21T06:12:50;7.13;;;4.20;;
4583;SDS011;2304;47.606;12.186;2024-02-21T06:17:52;7.87;;;4.83;;
4583;SDS011;2304;47.606;12.186;2024-02-21T06:22:54;6.03;;;4.57;;
4583;SDS011;2304;47.606;12.186;2024-02-21T06:27:57;6.97;;;5.30;;
4583;SDS011;2304;47.606;12.186;2024-02-21T06:32:59;7.53;;;4.70;;
4583;SDS011;2304;47.606;12.186;2024-02-21T06:38:02;8.30;;;4.90;;
4583;SDS011;2304;47.606;12.186;2024-02-21T06:43:06;7.93;;;5.57;;
4583;SDS011;2304;47.606;12.186;2024-02-21T06:48:07;9.40;;;5.20;;
4583;SDS011;2304;47.606;12.186;2024-02-21T06:53:09;6.70;;;4.87;;
4583;SDS011;2304;47.606;12.186;2024-02-21T06:58:13;5.27;;;4.47;;
4583;SDS011;2304;47.606;12.186;2024-02-21T07:03:17;7.10;;;4.27;;
4583;SDS011;2304;47.606;12.186;2024-02-21T07:08:18;8.37;;;5.10;;
4583;SDS011;2304;47.606;12.186;2024-02-21T07:13:22;6.33;;;4.50;;
4583;SDS011;2304;47.606;12.186;2024-02-21T07:18:23;7.73;;;5.33;;
4583;SDS011;2304;47.606;12.186;2024-02-21T07:23:25;7.73;;;5.10;;
4583;SDS011;2304;47.606;12.186;2024-02-21T07:28:28;9.00;;;5.23;;
4583;SDS011;2304;47.606;12.186;2024-02-21T07:33:30;9.80;;;5.97;;
4583;SDS011;2304;47.606;12.186;2024-02-21T07:38:32;8.87;;;4.90;;
4583;SDS011;2304;47.606;12.186;2024-02-21T07:43:36;7.20;;;4.03;;
4583;SDS011;2304;47.606;12.186;2024-02-21T07:48:37;6.67;;;5.20;;
4583;SDS011;2304;47.606;12.186;2024-02-21T07:53:39;6.93;;;5.10;;
4583;SDS011;2304;47.606;12.186;2024-02-21T07:58:46;9.10;;;4.67;;
4583;SDS011;2304;47.606;12.186;2024-02-21T08:03:47;8.03;;;4.03;;
4583;SDS011;2304;47.606;12.186;2024-02-21T08:08:49;9.70;;;4.50;;
4583;SDS011;2304;47.606;12.186;2024-02-21T08:13:52;5.20;;;3.53;;
4583;SDS011;2304;47.606;12.186;2024-02-21T08:18:54;8.17;;;4.30;;
4583;SDS011;2304;47.606;12.186;2024-02-21T08:23:56;4.20;;;3.40;;
4583;SDS011;2304;47.606;12.186;2024-02-21T08:28:59;4.63;;;3.10;;
4583;SDS011;2304;47.606;12.186;2024-02-21T08:34:01;4.83;;;3.50;;
4583;SDS011;2304;47.606;12.186;2024-02-21T08:39:03;7.57;;;3.67;;
4583;SDS011;2304;47.606;12.186;2024-02-21T08:44:07;5.00;;;3.30;;
4583;SDS011;2304;47.606;12.186;2024-02-21T08:49:09;6.40;;;3.43;;
4583;SDS011;2304;47.606;12.186;2024-02-21T08:54:12;3.10;;;2.37;;
4583;SDS011;2304;47.606;12.186;2024-02-21T08:59:15;4.30;;;3.10;;
4583;SDS011;2304;47.606;12.186;2024-02-21T09:04:17;8.13;;;3.27;;
4583;SDS011;2304;47.606;12.186;2024-02-21T09:09:19;5.20;;;3.07;;
4583;SDS011;2304;47.606;12.186;2024-02-21T09:14:29;4.60;;;3.30;;
4583;SDS011;2304;47.606;12.186;2024-02-21T09:19:31;6.83;;;2.90;;
4583;SDS011;2304;47.606;12.186;2024-02-21T09:24:33;6.63;;;2.43;;
4583;SDS011;2304;47.606;12.186;2024-02-21T09:29:36;5.23;;;2.73;;
4583;SDS011;2304;47.606;12.186;2024-02-21T09:34:39;3.90;;;1.77;;
4583;SDS011;2304;47.606;12.186;2024-02-21T09:39:41;3.60;;;1.90;;
4583;SDS011;2304;47.606;12.186;2024-02-21T09:44:44;4.17;;;2.20;;
4583;SDS011;2304;47.606;12.186;2024-02-21T09:49:48;2.93;;;1.57;;
4583;SDS011;2304;47.606;12.186;2024-02-21T09:54:50;3.03;;;2.10;;
4583;SDS011;2304;47.606;12.186;2024-02-21T09:59:54;2.67;;;1.70;;
4583;SDS011;2304;47.606;12.186;2024-02-21T10:04:59;2.70;;;1.57;;
4583;SDS011;2304;47.606;12.186;2024-02-21T10:10:01;4.73;;;1.67;;
4583;SDS011;2304;47.606;12.186;2024-02-21T10:15:05;4.10;;;1.70;;
4583;SDS011;2304;47.606;12.186;2024-02-21T10:20:08;7.20;;;2.27;;
4583;SDS011;2304;47.606;12.186;2024-02-21T10:25:10;4.77;;;1.53;;
4583;SDS011;2304;47.606;12.186;2024-02-21T10:30:14;3.07;;;1.57;;
4583;SDS011;2304;47.606;12.186;2024-02-21T10:35:25;3.87;;;1.77;;
4583;SDS011;2304;47.606;12.186;2024-02-21T10:40:28;4.17;;;1.83;;
4583;SDS011;2304;47.606;12.186;2024-02-21T10:45:33;4.47;;;1.70;;
4583;SDS011;2304;47.606;12.186;2024-02-21T10:50:36;3.83;;;2.30;;
4583;SDS011;2304;47.606;12.186;2024-02-21T10:55:50;4.70;;;2.17;;
4583;SDS011;2304;47.606;12.186;2024-02-21T11:00:58;4.70;;;2.37;;
4583;SDS011;2304;47.606;12.186;2024-02-21T11:06:01;4.37;;;2.20;;
4583;SDS011;2304;47.606;12.186;2024-02-21T11:11:05;5.17;;;2.20;;
4583;SDS011;2304;47.606;12.186;2024-02-21T11:16:09;5.07;;;2.60;;
4583;SDS011;2304;47.606;12.186;2024-02-21T11:21:12;3.23;;;1.80;;
4583;SDS011;2304;47.606;12.186;2024-02-21T11:26:17;4.20;;;2.00;;
4583;SDS011;2304;47.606;12.186;2024-02-21T11:31:21;11.13;;;1.87;;
4583;SDS011;2304;47.606;12.186;2024-02-21T11:36:26;3.30;;;1.70;;
4583;SDS011;2304;47.606;12.186;2024-02-21T11:41:28;2.00;;;1.20;;
4583;SDS011;2304;47.606;12.186;2024-02-21T11:46:31;3.97;;;1.60;;
4583;SDS011;2304;47.606;12.186;2024-02-21T11:51:34;3.00;;;1.50;;
4583;SDS011;2304;47.606;12.186;2024-02-21T11:56:36;4.27;;;1.67;;
4583;SDS011;2304;47.606;12.186;2024-02-21T12:01:39;3.40;;;1.60;;
4583;SDS011;2304;47.606;12.186;2024-02-21T12:06:41;3.17;;;1.40;;
4583;SDS011;2304;47.606;12.186;2024-02-21T12:11:43;2.90;;;1.40;;
4583;SDS011;2304;47.606;12.186;2024-02-21T12:16:47;3.63;;;1.50;;
4583;SDS011;2304;47.606;12.186;2024-02-21T12:21:49;2.83;;;1.93;;
4583;SDS011;2304;47.606;12.186;2024-02-21T12:26:52;2.50;;;1.47;;
4583;SDS011;2304;47.606;12.186;2024-02-21T12:31:55;4.23;;;1.57;;
4583;SDS011;2304;47.606;12.186;2024-02-21T12:36:58;2.90;;;1.47;;
4583;SDS011;2304;47.606;12.186;2024-02-21T12:42:00;3.03;;;1.47;;
4583;SDS011;2304;47.606;12.186;2024-02-21T12:47:03;4.30;;;1.40;;
4583;SDS011;2304;47.606;12.186;2024-02-21T12:52:05;16.10;;;1.80;;
4583;SDS011;2304;47.606;12.186;2024-02-21T12:57:07;2.67;;;1.60;;
4583;SDS011;2304;47.606;12.186;2024-02-21T13:02:10;2.10;;;1.40;;
4583;SDS011;2304;47.606;12.186;2024-02-21T13:07:12;2.97;;;1.50;;
4583;SDS011;2304;47.606;12.186;2024-02-21T13:12:14;2.43;;;1.30;;
4583;SDS011;2304;47.606;12.186;2024-02-21T13:17:17;2.97;;;1.30;;
4583;SDS011;2304;47.606;12.186;2024-02-21T13:22:19;2.53;;;1.40;;
4583;SDS011;2304;47.606;12.186;2024-02-21T13:27:22;2.43;;;1.37;;
4583;SDS011;2304;47.606;12.186;2024-02-21T13:32:25;2.63;;;1.60;;
4583;SDS011;2304;47.606;12.186;2024-02-21T13:37:27;3.57;;;1.77;;
4583;SDS011;2304;47.606;12.186;2024-02-21T13:42:29;6.53;;;1.53;;
4583;SDS011;2304;47.606;12.186;2024-02-21T13:47:32;3.43;;;1.50;;
4583;SDS011;2304;47.606;12.186;2024-02-21T13:52:36;3.60;;;1.50;;
4583;SDS011;2304;47.606;12.186;2024-02-21T13:57:38;3.67;;;1.77;;
4583;SDS011;2304;47.606;12.186;2024-02-21T14:02:41;3.77;;;1.40;;
4583;SDS011;2304;47.606;12.186;2024-02-21T14:07:43;3.77;;;1.50;;
4583;SDS011;2304;47.606;12.186;2024-02-21T14:12:45;5.13;;;1.70;;
4583;SDS011;2304;47.606;12.186;2024-02-21T14:17:49;3.60;;;1.70;;
4583;SDS011;2304;47.606;12.186;2024-02-21T14:22:50;3.30;;;1.90;;
4583;SDS011;2304;47.606;12.186;2024-02-21T14:27:52;3.30;;;1.53;;
4583;SDS011;2304;47.606;12.186;2024-02-21T14:32:55;7.40;;;2.00;;
4583;SDS011;2304;47.606;12.186;2024-02-21T14:37:57;4.30;;;1.50;;
4583;SDS011;2304;47.606;12.186;2024-02-21T14:43:01;3.50;;;1.70;;
4583;SDS011;2304;47.606;12.186;2024-02-21T14:48:04;3.97;;;1.63;;
4583;SDS011;2304;47.606;12.186;2024-02-21T14:53:07;4.13;;;1.83;;
4583;SDS011;2304;47.606;12.186;2024-02-21T14:58:09;7.50;;;1.93;;
4583;SDS011;2304;47.606;12.186;2024-02-21T15:03:12;3.53;;;1.70;;
4583;SDS011;2304;47.606;12.186;2024-02-21T15:08:19;2.67;;;1.33;;
4583;SDS011;2304;47.606;12.186;2024-02-21T15:13:21;4.70;;;1.77;;
4583;SDS011;2304;47.606;12.186;2024-02-21T15:18:24;4.90;;;1.47;;
4583;SDS011;2304;47.606;12.186;2024-02-21T15:23:26;2.83;;;1.50;;
4583;SDS011;2304;47.606;12.186;2024-02-21T15:28:28;5.70;;;1.60;;
4583;SDS011;2304;47.606;12.186;2024-02-21T15:33:31;5.90;;;1.80;;
4583;SDS011;2304;47.606;12.186;2024-02-21T15:38:33;4.33;;;1.80;;
4583;SDS011;2304;47.606;12.186;2024-02-21T15:43:35;2.40;;;1.57;;
4583;SDS011;2304;47.606;12.186;2024-02-21T15:48:39;6.50;;;1.80;;
4583;SDS011;2304;47.606;12.186;2024-02-21T15:53:41;4.20;;;2.20;;
4583;SDS011;2304;47.606;12.186;2024-02-21T15:58:45;2.97;;;1.73;;
4583;SDS011;2304;47.606;12.186;2024-02-21T16:03:48;7.27;;;2.00;;
4583;SDS011;2304;47.606;12.186;2024-02-21T16:08:50;4.10;;;2.00;;
4583;SDS011;2304;47.606;12.186;2024-02-21T16:13:52;3.73;;;2.20;;
4583;SDS011;2304;47.606;12.186;2024-02-21T16:18:56;7.37;;;3.13;;
4583;SDS011;2304;47.606;12.186;2024-02-21T16:23:58;5.47;;;2.53;;
4583;SDS011;2304;47.606;12.186;2024-02-21T16:29:00;10.50;;;6.57;;
4583;SDS011;2304;47.606;12.186;2024-02-21T16:34:04;12.53;;;6.97;;
4583;SDS011;2304;47.606;12.186;2024-02-21T16:39:07;14.43;;;8.93;;
4583;SDS011;2304;47.606;12.186;2024-02-21T16:44:11;6.63;;;2.93;;
4583;SDS011;2304;47.606;12.186;2024-02-21T16:54:25;5.60;;;2.53;;
4583;SDS011;2304;47.606;12.186;2024-02-21T16:59:27;9.70;;;3.30;;
4583;SDS011;2304;47.606;12.186;2024-02-21T17:04:29;4.93;;;2.50;;
4583;SDS011;2304;47.606;12.186;2024-02-21T17:09:32;12.80;;;5.70;;
4583;SDS011;2304;47.606;12.186;2024-02-21T17:14:34;12.67;;;6.40;;
4583;SDS011;2304;47.606;12.186;2024-02-21T17:19:37;6.53;;;3.43;;
4583;SDS011;2304;47.606;12.186;2024-02-21T17:24:40;6.20;;;3.67;;
4583;SDS011;2304;47.606;12.186;2024-02-21T17:29:42;6.70;;;3.67;;
4583;SDS011;2304;47.606;12.186;2024-02-21T17:34:44;10.63;;;5.00;;
4583;SDS011;2304;47.606;12.186;2024-02-21T17:39:48;8.20;;;4.47;;
4583;SDS011;2304;47.606;12.186;2024-02-21T17:44:50;7.57;;;3.80;;
4583;SDS011;2304;47.606;12.186;2024-02-21T17:49:52;5.57;;;3.33;;
4583;SDS011;2304;47.606;12.186;2024-02-21T17:54:55;6.97;;;4.00;;
4583;SDS011;2304;47.606;12.186;2024-02-21T17:59:57;8.80;;;3.87;;
4583;SDS011;2304;47.606;12.186;2024-02-21T18:05:01;7.00;;;3.70;;
4583;SDS011;2304;47.606;12.186;2024-02-21T18:10:06;11.80;;;4.20;;
4583;SDS011;2304;47.606;12.186;2024-02-21T18:15:09;9.07;;;4.30;;
4583;SDS011;2304;47.606;12.186;2024-02-21T18:20:11;4.70;;;2.93;;
4583;SDS011;2304;47.606;12.186;2024-02-21T18:25:15;8.40;;;4.00;;
4583;SDS011;2304;47.606;12.186;2024-02-21T18:30:17;6.07;;;3.03;;
4583;SDS011;2304;47.606;12.186;2024-02-21T18:35:19;8.40;;;3.70;;
4583;SDS011;2304;47.606;12.186;2024-02-21T18:40:22;8.67;;;5.70;;
4583;SDS011;2304;47.606;12.186;2024-02-21T18:45:24;13.60;;;9.30;;
4583;SDS011;2304;47.606;12.186;2024-02-21T18:50:26;14.80;;;4.57;;
4583;SDS011;2304;47.606;12.186;2024-02-21T18:55:29;11.23;;;5.00;;
4583;SDS011;2304;47.606;12.186;2024-02-21T19:00:31;10.07;;;4.87;;
4583;SDS011;2304;47.606;12.186;2024-02-21T19:05:33;13.87;;;4.93;;
4583;SDS011;2304;47.606;12.186;2024-02-21T19:10:36;10.90;;;5.50;;
4583;SDS011;2304;47.606;12.186;2024-02-21T19:15:38;16.20;;;7.20;;
4583;SDS011;2304;47.606;12.186;2024-02-21T19:20:41;9.63;;;5.17;;
4583;SDS011;2304;47.606;12.186;2024-02-21T19:25:45;8.40;;;5.43;;
4583;SDS011;2304;47.606;12.186;2024-02-21T19:30:47;10.20;;;6.90;;
4583;SDS011;2304;47.606;12.186;2024-02-21T19:35:49;13.10;;;6.13;;
4583;SDS011;2304;47.606;12.186;2024-02-21T19:40:52;12.80;;;6.10;;
4583;SDS011;2304;47.606;12.186;2024-02-21T19:45:53;8.13;;;4.70;;
4583;SDS011;2304;47.606;12.186;2024-02-21T19:50:55;10.33;;;5.00;;
4583;SDS011;2304;47.606;12.186;2024-02-21T19:55:59;10.63;;;4.97;;
4583;SDS011;2304;47.606;12.186;2024-02-21T20:01:01;7.50;;;4.30;;
4583;SDS011;2304;47.606;12.186;2024-02-21T20:06:04;8.10;;;4.30;;
4583;SDS011;2304;47.606;12.186;2024-02-21T20:11:08;8.33;;;3.87;;
4583;SDS011;2304;47.606;12.186;2024-02-21T20:16:10;8.90;;;3.97;;
4583;SDS011;2304;47.606;12.186;2024-02-21T20:21:12;12.97;;;5.20;;
4583;SDS011;2304;47.606;12.186;2024-02-21T20:26:15;7.10;;;4.60;;
4583;SDS011;2304;47.606;12.186;2024-02-21T20:31:17;14.43;;;7.23;;
4583;SDS011;2304;47.606;12.186;2024-02-21T20:36:21;23.80;;;9.60;;
4583;SDS011;2304;47.606;12.186;2024-02-21T20:41:24;11.90;;;7.60;;
4583;SDS011;2304;47.606;12.186;2024-02-21T20:46:26;11.20;;;6.90;;
4583;SDS011;2304;47.606;12.186;2024-02-21T20:51:28;14.93;;;8.70;;
4583;SDS011;2304;47.606;12.186;2024-02-21T20:56:31;13.10;;;6.20;;
4583;SDS011;2304;47.606;12.186;2024-02-21T21:01:33;12.73;;;6.33;;
4583;SDS011;2304;47.606;12.186;2024-02-21T21:06:35;10.33;;;4.67;;
4583;SDS011;2304;47.606;12.186;2024-02-21T21:11:39;7.33;;;4.70;;
4583;SDS011;2304;47.606;12.186;2024-02-21T21:16:40;8.07;;;4.30;;
4583;SDS011;2304;47.606;12.186;2024-02-21T21:21:42;9.67;;;4.80;;
4583;SDS011;2304;47.606;12.186;2024-02-21T21:26:47;7.80;;;3.93;;
4583;SDS011;2304;47.606;12.186;2024-02-21T21:31:48;6.70;;;3.90;;
4583;SDS011;2304;47.606;12.186;2024-02-21T21:36:50;7.50;;;3.10;;
4583;SDS011;2304;47.606;12.186;2024-02-21T21:41:53;6.20;;;3.63;;
4583;SDS011;2304;47.606;12.186;2024-02-21T21:46:55;5.30;;;3.40;;
4583;SDS011;2304;47.606;12.186;2024-02-21T21:51:57;8.20;;;3.73;;
4583;SDS011;2304;47.606;12.186;2024-02-21T21:57:00;6.93;;;4.47;;
4583;SDS011;2304;47.606;12.186;2024-02-21T22:02:02;7.67;;;4.60;;
4583;SDS011;2304;47.606;12.186;2024-02-21T22:07:05;7.53;;;4.87;;
4583;SDS011;2304;47.606;12.186;2024-02-21T22:12:08;6.80;;;3.90;;
4583;SDS011;2304;47.606;12.186;2024-02-21T22:17:10;8.87;;;4.57;;
4583;SDS011;2304;47.606;12.186;2024-02-21T22:22:11;8.50;;;4.23;;
4583;SDS011;2304;47.606;12.186;2024-02-21T22:27:15;9.90;;;4.13;;
4583;SDS011;2304;47.606;12.186;2024-02-21T22:32:18;7.50;;;4.00;;
4583;SDS011;2304;47.606;12.186;2024-02-21T22:37:20;5.30;;;3.30;;
4583;SDS011;2304;47.606;12.186;2024-02-21T22:42:23;5.87;;;3.30;;
4583;SDS011;2304;47.606;12.186;2024-02-21T22:47:25;7.00;;;3.60;;
4583;SDS011;2304;47.606;12.186;2024-02-21T22:52:27;8.43;;;4.00;;
4583;SDS011;2304;47.606;12.186;2024-02-21T22:57:30;6.03;;;3.13;;
4583;SDS011;2304;47.606;12.186;2024-02-21T23:02:32;12.23;;;4.63;;
4583;SDS011;2304;47.606;12.186;2024-02-21T23:07:33;6.23;;;4.00;;
4583;SDS011;2304;47.606;12.186;2024-02-21T23:12:37;8.43;;;3.93;;
4583;SDS011;2304;47.606;12.186;2024-02-21T23:17:39;7.57;;;3.83;;
4583;SDS011;2304;47.606;12.186;2024-02-21T23:22:41;7.13;;;4.10;;
4583;SDS011;2304;47.606;12.186;2024-02-21T23:27:44;6.83;;;3.33;;
4583;SDS011;2304;47.606;12.186;2024-02-21T23:32:46;6.13;;;3.53;;
4583;SDS011;2304;47.606;12.186;2024-02-21T23:37:48;8.00;;;3.57;;
4583;SDS011;2304;47.606;12.186;2024-02-21T23:42:51;5.60;;;3.70;;
4583;SDS011;2304;47.606;12.186;2024-02-21T23:47:53;9.57;;;4.17;;
4583;SDS011;2304;47.606;12.186;2024-02-21T23:52:55;7.20;;;3.83;;
4583;SDS011;2304;47.606;12.186;2024-02-21T23:57:58;7.50;;;4.40;;
